METAR AND TAF INFORMATION
METAR FOR AYPY
AYPY 260300Z 25008KT 9999 FEW045 33/- Q1009
AYPY 260200Z 28005KT 9999 FEW040 34/- Q1009 RMK/ DP NOT AVBL
AYPY 260100Z 30010KT 9999 FEW040 33/- Q1010 RMKS/ DP NOT AVBL

TAF AYPY 252300Z 2600/2624 30006KT 9999 FEW018 SCT130
FM260600 20008KT 9999 -SHRA SCT018 BKN120

 AIRPORT MAP

 RUNWAY INFORMATION
Runway 14L Runway length 9022 ft Runway width 148 ft
Runway elevation 103 ft Runway displaced threshold 0 ft Runway heading 148
Runway 32R Runway length 9022 ft Runway width 148 ft
Runway elevation 128 ft Runway displaced threshold 0 ft Runway heading 328
Runway 14R Runway length 6777 ft Runway width 148 ft
Runway elevation 104 ft Runway displaced threshold 0 ft Runway heading 149
Runway 32L Runway length 6777 ft Runway width 148 ft
Runway elevation 146 ft Runway displaced threshold 0 ft Runway heading 329

 AIRPORT FREQUENCIES
Type APP Name JACKSONS A Frequency 125.8 MHZ
Type ATIS Name ATIS Frequency 117 MHZ
Type GND Name JACKSONS G Frequency 121.7 MHZ
Type TWR Name JACKSONS T Frequency 118.1 MHZ

 AIRPORT NEAR NAVIGATION AIDS
Type NDB Name Jackson Frequency 380 KHZ
Type NDB Name Parer Frequency 395 KHZ
Type VOR-DME Name Port Moresby Frequency 117000 KHZ
Type NDB Name Port Moresby Frequency 368 KHZ

-